createdAt,value
2018-02-12T00:00:46.619Z,93.80
2018-02-12T00:03:14.924Z,94.00
2018-02-12T00:05:42.453Z,94.00
2018-02-12T00:08:09.992Z,94.30
2018-02-12T00:10:37.555Z,94.60
2018-02-12T00:13:05.107Z,94.80
2018-02-12T00:15:32.669Z,94.80
2018-02-12T00:18:00.233Z,94.70
2018-02-12T00:20:27.811Z,94.70
2018-02-12T00:22:55.354Z,94.90
2018-02-12T00:25:23.657Z,95.00
2018-02-12T00:27:51.212Z,95.00
2018-02-12T00:30:19.549Z,94.50
2018-02-12T00:32:47.121Z,94.40
2018-02-12T00:35:14.668Z,94.30
2018-02-12T00:37:42.275Z,94.10
2018-02-12T00:40:10.586Z,94.00
2018-02-12T00:42:38.146Z,94.00
2018-02-12T00:45:05.691Z,94.10
2018-02-12T00:47:33.322Z,94.30
2018-02-12T00:50:01.634Z,94.40
2018-02-12T00:52:29.378Z,94.40
2018-02-12T00:54:56.913Z,94.30
2018-02-12T00:57:24.469Z,93.90
2018-02-12T00:59:52.033Z,93.50
2018-02-12T01:02:19.614Z,93.60
2018-02-12T01:04:47.177Z,93.60
2018-02-12T01:07:14.758Z,93.60
2018-02-12T01:09:42.318Z,93.60
2018-02-12T01:12:09.917Z,93.60
2018-02-12T01:14:37.466Z,93.60
2018-02-12T01:17:05.039Z,93.70
2018-02-12T01:19:32.563Z,93.70
2018-02-12T01:22:00.131Z,93.70
2018-02-12T01:24:27.709Z,93.70
2018-02-12T01:26:55.240Z,92.10
2018-02-12T01:29:22.849Z,91.60
2018-02-12T01:31:50.392Z,91.70
2018-02-12T01:34:17.977Z,91.90
2018-02-12T01:36:45.541Z,91.80
2018-02-12T01:39:13.128Z,91.90
2018-02-12T01:41:40.705Z,91.80
2018-02-12T01:44:08.261Z,92.00
2018-02-12T01:46:35.809Z,92.00
2018-02-12T01:49:03.364Z,92.00
2018-02-12T01:51:31.102Z,92.30
2018-02-12T01:53:58.659Z,92.30
2018-02-12T01:56:26.201Z,92.30
2018-02-12T01:58:53.756Z,92.30
2018-02-12T02:01:21.296Z,92.40
2018-02-12T02:03:48.873Z,92.30
2018-02-12T02:06:17.215Z,92.10
2018-02-12T02:08:44.779Z,92.10
2018-02-12T02:11:12.326Z,92.00
2018-02-12T02:13:39.942Z,92.00
2018-02-12T02:16:07.481Z,92.00
2018-02-12T02:18:35.088Z,92.00
2018-02-12T02:21:02.637Z,91.50
2018-02-12T02:23:30.238Z,91.50
2018-02-12T02:25:58.552Z,91.50
2018-02-12T02:28:26.087Z,91.50
2018-02-12T02:30:53.627Z,90.80
2018-02-12T02:33:21.165Z,90.30
2018-02-12T02:35:48.681Z,90.30
2018-02-12T02:38:16.287Z,90.30
2018-02-12T02:40:43.830Z,90.30
2018-02-12T02:43:11.373Z,90.30
2018-02-12T02:45:39.706Z,90.30
2018-02-12T02:48:07.219Z,90.30
2018-02-12T02:50:34.748Z,90.30
2018-02-12T02:53:02.255Z,90.20
2018-02-12T02:55:29.792Z,90.20
2018-02-12T02:57:57.323Z,90.30
2018-02-12T03:00:25.649Z,90.20
2018-02-12T03:02:53.173Z,90.20
2018-02-12T03:05:21.480Z,90.20
2018-02-12T03:07:49.760Z,90.50
2018-02-12T03:10:18.089Z,90.20
2018-02-12T03:12:45.612Z,90.20
2018-02-12T03:15:13.629Z,90.20
2018-02-12T03:17:41.141Z,90.20
2018-02-12T03:20:08.698Z,90.00
2018-02-12T03:22:36.271Z,90.20
2018-02-12T03:25:03.811Z,89.90
2018-02-12T03:27:31.433Z,89.00
2018-02-12T03:29:58.973Z,88.70
2018-02-12T03:32:26.489Z,89.10
2018-02-12T03:34:54.040Z,88.60
2018-02-12T03:37:21.556Z,88.90
2018-02-12T03:39:49.863Z,88.90
2018-02-12T03:42:17.415Z,88.70
2018-02-12T03:44:45.721Z,90.00
2018-02-12T03:47:14.073Z,90.10
2018-02-12T03:49:41.629Z,90.10
2018-02-12T03:52:09.145Z,90.10
2018-02-12T03:54:37.473Z,90.10
2018-02-12T03:57:05.757Z,90.10
2018-02-12T03:59:33.293Z,90.10
2018-02-12T04:02:00.844Z,89.90
2018-02-12T04:04:28.371Z,90.10
2018-02-12T04:06:55.915Z,90.10
2018-02-12T04:09:23.437Z,90.10
2018-02-12T04:11:50.997Z,90.10
2018-02-12T04:14:18.544Z,89.80
2018-02-12T04:16:46.093Z,90.00
2018-02-12T04:19:14.414Z,88.90
2018-02-12T04:21:41.997Z,88.90
2018-02-12T04:24:09.517Z,88.90
2018-02-12T04:26:37.855Z,88.80
2018-02-12T04:29:05.387Z,88.80
2018-02-12T04:31:33.695Z,89.10
2018-02-12T04:34:02.157Z,89.10
2018-02-12T04:36:30.524Z,88.20
2018-02-12T04:38:58.061Z,88.20
2018-02-12T04:41:25.598Z,89.20
2018-02-12T04:43:53.114Z,87.90
2018-02-12T04:46:20.693Z,88.10
2018-02-12T04:48:48.350Z,88.70
2018-02-12T04:51:15.894Z,88.90
2018-02-12T04:53:44.176Z,88.60
2018-02-12T04:56:12.474Z,88.10
2018-02-12T04:58:40.765Z,87.90
2018-02-12T05:01:09.089Z,88.00
2018-02-12T05:03:36.614Z,88.00
2018-02-12T05:06:04.177Z,87.80
2018-02-12T05:08:31.734Z,88.20
2018-02-12T05:10:59.337Z,88.50
2018-02-12T05:13:27.669Z,88.00
2018-02-12T05:15:55.204Z,87.90
2018-02-12T05:18:23.512Z,88.50
2018-02-12T05:20:51.043Z,88.50
2018-02-12T05:23:18.591Z,88.50
2018-02-12T05:25:46.113Z,89.40
2018-02-12T05:28:13.651Z,89.10
2018-02-12T05:30:41.189Z,89.40
2018-02-12T05:33:08.742Z,88.40
2018-02-12T05:35:36.277Z,88.30
2018-02-12T05:38:03.827Z,88.00
2018-02-12T05:40:31.346Z,87.70
2018-02-12T05:43:04.661Z,87.70
2018-02-12T05:45:32.177Z,87.20
2018-02-12T05:47:59.730Z,87.30
2018-02-12T05:50:27.257Z,87.20
2018-02-12T05:52:55.576Z,86.90
2018-02-12T05:55:23.100Z,86.90
2018-02-12T05:57:51.418Z,87.40
2018-02-12T06:00:18.945Z,86.70
2018-02-12T06:02:46.489Z,86.40
2018-02-12T06:05:14.030Z,86.00
2018-02-12T06:07:41.589Z,85.90
2018-02-12T06:10:09.129Z,84.30
2018-02-12T06:12:36.664Z,84.00
2018-02-12T06:15:04.220Z,84.00
2018-02-12T06:17:31.772Z,83.70
2018-02-12T06:20:00.069Z,83.80
2018-02-12T06:22:28.424Z,84.00
2018-02-12T06:24:55.948Z,84.00
2018-02-12T06:27:23.475Z,84.00
2018-02-12T06:29:51.037Z,84.10
2018-02-12T06:32:19.359Z,85.80
2018-02-12T06:34:47.902Z,89.10
2018-02-12T06:37:15.464Z,89.20
2018-02-12T06:39:43.002Z,90.30
2018-02-12T06:42:11.311Z,91.00
2018-02-12T06:44:38.859Z,91.00
2018-02-12T06:47:06.516Z,90.80
2018-02-12T06:49:34.072Z,90.40
2018-02-12T06:52:01.634Z,90.00
2018-02-12T06:54:29.201Z,89.50
2018-02-12T06:56:57.517Z,88.30
2018-02-12T06:59:25.072Z,88.30
2018-02-12T07:01:52.591Z,87.60
2018-02-12T07:04:20.910Z,87.40
2018-02-12T07:06:48.429Z,87.40
2018-02-12T07:09:16.774Z,87.80
2018-02-12T07:11:44.296Z,87.70
2018-02-12T07:14:11.839Z,87.40
2018-02-12T07:16:40.983Z,87.80
2018-02-12T07:19:09.298Z,87.50
2018-02-12T07:21:36.832Z,87.50
2018-02-12T07:24:04.392Z,86.80
2018-02-12T07:26:31.929Z,86.60
2018-02-12T07:28:59.490Z,86.70
2018-02-12T07:31:27.006Z,86.50
2018-02-12T07:33:54.526Z,86.40
2018-02-12T07:36:22.085Z,86.20
2018-02-12T07:38:49.605Z,86.10
2018-02-12T07:41:17.142Z,85.90
2018-02-12T07:43:44.658Z,85.40
2018-02-12T07:46:12.230Z,86.30
2018-02-12T07:48:39.751Z,86.10
2018-02-12T07:51:07.302Z,85.50
2018-02-12T07:53:35.586Z,85.90
2018-02-12T07:56:03.892Z,85.50
2018-02-12T07:58:32.214Z,85.30
2018-02-12T08:00:59.757Z,85.30
2018-02-12T08:03:27.285Z,84.90
2018-02-12T08:05:54.822Z,85.20
2018-02-12T08:08:22.349Z,85.10
2018-02-12T08:10:49.901Z,84.30
2018-02-12T08:13:17.438Z,84.30
2018-02-12T08:15:44.993Z,85.50
2018-02-12T08:18:12.530Z,87.10
2018-02-12T08:20:40.098Z,87.80
2018-02-12T08:23:07.631Z,87.90
2018-02-12T08:25:35.177Z,86.90
2018-02-12T08:28:03.545Z,86.90
2018-02-12T08:30:31.898Z,86.80
2018-02-12T08:33:00.189Z,85.10
2018-02-12T08:35:27.736Z,85.10
2018-02-12T08:37:55.405Z,85.50
2018-02-12T08:40:22.983Z,85.50
2018-02-12T08:42:50.501Z,84.70
2018-02-12T08:45:18.036Z,83.50
2018-02-12T08:47:45.651Z,83.30
2018-02-12T08:50:13.191Z,82.30
2018-02-12T08:52:40.759Z,81.90
2018-02-12T08:55:08.286Z,80.40
2018-02-12T08:57:35.829Z,80.20
2018-02-12T09:00:03.386Z,79.40
2018-02-12T09:02:30.930Z,79.30
2018-02-12T09:04:58.465Z,78.90
2018-02-12T09:07:26.014Z,79.00
2018-02-12T09:09:53.547Z,79.00
2018-02-12T09:12:21.093Z,77.90
2018-02-12T09:14:48.633Z,78.90
2018-02-12T09:17:16.185Z,77.20
2018-02-12T09:19:43.709Z,76.40
2018-02-12T09:22:11.285Z,76.50
2018-02-12T09:24:39.573Z,76.60
2018-02-12T09:27:07.905Z,74.20
2018-02-12T09:29:35.444Z,74.10
2018-02-12T09:32:03.209Z,74.90
2018-02-12T09:34:30.746Z,74.90
2018-02-12T09:36:58.309Z,75.30
2018-02-12T09:39:26.634Z,75.10
2018-02-12T09:41:54.386Z,75.10
2018-02-12T09:44:21.917Z,74.30
2018-02-12T09:46:49.721Z,74.50
2018-02-12T09:49:17.255Z,74.40
2018-02-12T09:51:44.842Z,75.60
2018-02-12T09:54:12.366Z,75.20
2018-02-12T09:56:39.978Z,74.80
2018-02-12T09:59:08.260Z,75.80
2018-02-12T10:01:35.787Z,75.70
2018-02-12T10:04:03.682Z,74.60
2018-02-12T10:06:31.343Z,73.90
2018-02-12T10:08:58.886Z,73.20
2018-02-12T10:11:26.450Z,72.10
2018-02-12T10:13:54.007Z,73.30
2018-02-12T10:16:21.536Z,73.60
2018-02-12T10:18:49.070Z,73.90
2018-02-12T10:21:16.589Z,73.50
2018-02-12T10:23:44.122Z,72.50
2018-02-12T10:26:11.705Z,73.00
2018-02-12T10:28:39.601Z,73.00
2018-02-12T10:31:07.913Z,73.60
2018-02-12T10:33:36.471Z,72.60
2018-02-12T10:36:04.077Z,72.50
2018-02-12T10:38:31.637Z,71.80
2018-02-12T10:40:59.211Z,71.10
2018-02-12T10:43:26.753Z,71.20
2018-02-12T10:45:55.120Z,71.50
2018-02-12T10:48:22.680Z,71.50
2018-02-12T10:50:50.206Z,71.00
2018-02-12T10:53:17.743Z,71.30
2018-02-12T10:55:45.261Z,72.00
2018-02-12T10:58:12.813Z,72.50
2018-02-12T11:00:40.457Z,72.60
2018-02-12T11:03:08.003Z,72.80
2018-02-12T11:05:36.325Z,71.10
2018-02-12T11:08:03.960Z,71.10
2018-02-12T11:10:31.556Z,71.20
2018-02-12T11:12:59.109Z,70.60
2018-02-12T11:15:27.028Z,71.60
2018-02-12T11:17:54.727Z,71.20
2018-02-12T11:20:22.500Z,71.40
2018-02-12T11:22:50.351Z,70.20
2018-02-12T11:25:18.093Z,70.90
2018-02-12T11:27:46.159Z,71.10
2018-02-12T11:30:13.864Z,71.20
2018-02-12T11:32:41.624Z,69.20
2018-02-12T11:35:10.046Z,70.30
2018-02-12T11:37:37.908Z,70.30
2018-02-12T11:40:05.755Z,69.30
2018-02-12T11:42:33.322Z,68.90
2018-02-12T11:45:00.898Z,69.00
2018-02-12T11:47:28.470Z,69.10
2018-02-12T11:49:56.070Z,68.70
2018-02-12T11:52:23.668Z,69.20
2018-02-12T11:54:51.263Z,69.30
2018-02-12T11:57:18.924Z,68.60
2018-02-12T11:59:46.803Z,67.80
2018-02-12T12:02:14.756Z,67.40
2018-02-12T12:04:42.379Z,66.60
2018-02-12T12:07:09.948Z,66.20
2018-02-12T12:09:38.476Z,66.70
2018-02-12T12:12:06.856Z,64.00
2018-02-12T12:14:34.553Z,64.00
2018-02-12T12:17:03.182Z,65.10
2018-02-12T12:19:31.378Z,72.50
2018-02-12T12:21:59.274Z,76.20
2018-02-12T12:24:27.282Z,76.40
2018-02-12T12:26:56.883Z,77.10
2018-02-12T12:29:30.650Z,77.80
2018-02-12T12:31:58.622Z,78.10
2018-02-12T12:34:27.756Z,77.40
2018-02-12T12:36:55.618Z,77.60
2018-02-12T12:39:23.314Z,78.00
2018-02-12T12:41:51.244Z,77.50
2018-02-12T12:44:18.957Z,77.20
2018-02-12T12:46:46.655Z,75.90
2018-02-12T12:49:14.359Z,73.60
2018-02-12T12:51:43.260Z,71.00
2018-02-12T12:54:12.167Z,70.00
2018-02-12T12:56:40.608Z,71.40
2018-02-12T12:59:08.380Z,71.40
2018-02-12T13:01:36.159Z,71.80
2018-02-12T13:04:05.354Z,72.90
2018-02-12T13:06:34.047Z,73.10
2018-02-12T13:09:02.448Z,72.40
2018-02-12T13:11:33.702Z,72.40
2018-02-12T13:14:01.762Z,72.30
2018-02-12T13:16:30.531Z,74.80
2018-02-12T13:18:58.936Z,77.90
2018-02-12T13:21:27.094Z,81.10
2018-02-12T13:23:54.841Z,83.20
2018-02-12T13:26:23.714Z,86.00
2018-02-12T13:28:52.902Z,86.30
2018-02-12T13:31:20.833Z,86.10
2018-02-12T13:33:49.302Z,84.20
2018-02-12T13:36:16.992Z,84.10
2018-02-12T13:38:46.472Z,84.80
2018-02-12T13:41:14.146Z,84.70
2018-02-12T13:43:41.788Z,84.30
2018-02-12T13:46:09.348Z,84.60
2018-02-12T13:48:37.652Z,81.90
2018-02-12T13:51:05.173Z,81.90
2018-02-12T13:53:32.700Z,81.30
2018-02-12T13:56:00.230Z,80.90
2018-02-12T13:58:28.685Z,81.30
2018-02-12T14:00:56.197Z,80.70
2018-02-12T14:03:23.730Z,82.50
2018-02-12T14:05:51.244Z,87.50
2018-02-12T14:08:18.850Z,89.70
2018-02-12T14:10:46.358Z,91.20
2018-02-12T14:13:13.917Z,92.20
2018-02-12T14:15:41.445Z,92.60
2018-02-12T14:18:08.967Z,92.60
2018-02-12T14:20:36.478Z,92.00
2018-02-12T14:23:04.775Z,91.70
2018-02-12T14:25:33.065Z,90.50
2018-02-12T14:28:01.364Z,89.20
2018-02-12T14:30:28.877Z,89.10
2018-02-12T14:32:56.418Z,89.20
2018-02-12T14:35:23.931Z,89.80
2018-02-12T14:37:51.461Z,89.00
2018-02-12T14:40:18.987Z,88.00
2018-02-12T14:42:46.526Z,86.90
2018-02-12T14:45:14.044Z,86.80
2018-02-12T14:47:42.392Z,87.30
2018-02-12T14:50:09.914Z,87.30
2018-02-12T14:52:38.220Z,86.20
2018-02-12T14:55:05.738Z,86.20
2018-02-12T14:57:33.253Z,85.20
2018-02-12T15:00:01.545Z,86.70
2018-02-12T15:02:30.000Z,85.00
2018-02-12T15:04:58.119Z,85.00
2018-02-12T15:07:26.394Z,84.50
2018-02-12T15:09:53.916Z,84.50
2018-02-12T15:12:21.442Z,84.00
2018-02-12T15:14:49.748Z,83.00
2018-02-12T15:17:17.253Z,83.00
2018-02-12T15:19:44.790Z,83.90
2018-02-12T15:22:12.395Z,83.40
2018-02-12T15:24:39.933Z,83.30
2018-02-12T15:27:07.444Z,82.80
2018-02-12T15:29:34.994Z,82.90
2018-02-12T15:32:02.501Z,83.70
2018-02-12T15:34:30.040Z,83.00
2018-02-12T15:36:57.550Z,82.80
2018-02-12T15:39:25.102Z,82.20
2018-02-12T15:41:52.625Z,82.70
2018-02-12T15:44:20.943Z,81.00
2018-02-12T15:46:48.459Z,80.90
2018-02-12T15:49:15.992Z,80.50
2018-02-12T15:51:43.504Z,80.50
2018-02-12T15:54:11.041Z,80.70
2018-02-12T15:56:38.551Z,80.80
2018-02-12T15:59:06.094Z,80.70
2018-02-12T16:01:33.618Z,80.30
2018-02-12T16:04:01.944Z,80.90
2018-02-12T16:06:29.466Z,80.80
2018-02-12T16:08:57.749Z,81.50
2018-02-12T16:11:25.280Z,81.50
2018-02-12T16:13:52.801Z,82.20
2018-02-12T16:16:20.330Z,82.60
2018-02-12T16:18:47.841Z,82.60
2018-02-12T16:21:16.143Z,82.50
2018-02-12T16:23:43.652Z,82.50
2018-02-12T16:26:11.188Z,82.50
2018-02-12T16:28:39.478Z,82.20
2018-02-12T16:31:07.035Z,82.80
2018-02-12T16:33:35.309Z,80.50
2018-02-12T16:36:02.875Z,80.40
2018-02-12T16:38:30.396Z,80.30
2018-02-12T16:40:57.924Z,83.20
2018-02-12T16:43:25.432Z,87.40
2018-02-12T16:45:52.958Z,89.70
2018-02-12T16:48:20.473Z,89.60
2018-02-12T16:50:48.024Z,89.60
2018-02-12T16:53:16.301Z,88.50
2018-02-12T16:55:43.853Z,88.40
2018-02-12T16:58:11.368Z,86.40
2018-02-12T17:00:39.775Z,86.00
2018-02-12T17:03:07.297Z,86.00
2018-02-12T17:05:34.840Z,86.60
2018-02-12T17:08:02.350Z,86.00
2018-02-12T17:10:29.894Z,86.00
2018-02-12T17:12:57.412Z,85.90
2018-02-12T17:15:25.701Z,85.90
2018-02-12T17:17:53.972Z,86.00
2018-02-12T17:20:21.524Z,85.90
2018-02-12T17:22:49.034Z,85.70
2018-02-12T17:25:17.332Z,85.70
2018-02-12T17:27:44.860Z,86.30
2018-02-12T17:30:12.373Z,85.80
2018-02-12T17:32:39.910Z,84.60
2018-02-12T17:35:07.408Z,84.80
2018-02-12T17:37:35.709Z,84.50
2018-02-12T17:40:03.258Z,84.40
2018-02-12T17:42:31.555Z,85.30
2018-02-12T17:44:59.827Z,84.90
2018-02-12T17:47:27.442Z,84.80
2018-02-12T17:49:54.958Z,85.30
2018-02-12T17:52:22.545Z,84.80
2018-02-12T17:54:50.025Z,84.20
2018-02-12T17:57:18.339Z,84.80
2018-02-12T17:59:45.852Z,84.70
2018-02-12T18:02:13.833Z,83.80
2018-02-12T18:04:41.359Z,83.40
2018-02-12T18:07:08.892Z,83.00
2018-02-12T18:09:36.404Z,82.80
2018-02-12T18:12:03.948Z,83.00
2018-02-12T18:14:31.472Z,83.40
2018-02-12T18:16:59.022Z,83.60
2018-02-12T18:19:26.545Z,82.60
2018-02-12T18:21:54.154Z,83.20
2018-02-12T18:24:22.437Z,82.90
2018-02-12T18:26:50.737Z,82.70
2018-02-12T18:29:18.259Z,82.70
2018-02-12T18:31:47.063Z,83.70
2018-02-12T18:34:14.582Z,83.10
2018-02-12T18:36:42.131Z,83.20
2018-02-12T18:39:09.680Z,83.30
2018-02-12T18:41:38.724Z,82.80
2018-02-12T18:44:07.041Z,83.40
2018-02-12T18:46:34.568Z,83.40
2018-02-12T18:49:02.114Z,83.60
2018-02-12T18:51:29.655Z,83.90
2018-02-12T18:53:57.306Z,84.40
2018-02-12T18:56:24.820Z,84.20
2018-02-12T18:58:52.357Z,84.00
2018-02-12T19:01:20.631Z,83.40
2018-02-12T19:03:48.934Z,83.20
2018-02-12T19:06:16.456Z,83.20
2018-02-12T19:08:44.751Z,83.00
2018-02-12T19:11:12.305Z,83.00
2018-02-12T19:13:39.846Z,82.80
2018-02-12T19:16:07.374Z,82.20
2018-02-12T19:18:34.913Z,82.50
2018-02-12T19:21:02.440Z,82.50
2018-02-12T19:23:30.753Z,81.90
2018-02-12T19:25:58.273Z,81.90
2018-02-12T19:28:25.809Z,81.80
2018-02-12T19:30:53.328Z,81.80
2018-02-12T19:33:20.865Z,81.80
2018-02-12T19:35:48.378Z,81.80
2018-02-12T19:38:15.911Z,81.90
2018-02-12T19:40:43.458Z,82.30
2018-02-12T19:43:11.038Z,81.60
2018-02-12T19:45:38.561Z,82.10
2018-02-12T19:48:06.073Z,82.10
2018-02-12T19:50:33.614Z,81.90
2018-02-12T19:53:01.137Z,81.70
2018-02-12T19:55:28.680Z,82.10
2018-02-12T19:57:56.197Z,82.20
2018-02-12T20:00:23.743Z,82.30
2018-02-12T20:02:51.264Z,82.60
2018-02-12T20:05:18.820Z,82.80
2018-02-12T20:07:46.344Z,83.60
2018-02-12T20:10:13.884Z,83.10
2018-02-12T20:12:41.409Z,83.20
2018-02-12T20:15:08.979Z,83.30
2018-02-12T20:17:36.509Z,83.30
2018-02-12T20:20:04.810Z,83.90
2018-02-12T20:22:32.323Z,83.90
2018-02-12T20:24:59.848Z,84.70
2018-02-12T20:27:28.138Z,84.80
2018-02-12T20:29:56.436Z,84.80
2018-02-12T20:32:23.960Z,84.80
2018-02-12T20:34:51.504Z,84.70
2018-02-12T20:37:19.029Z,84.80
2018-02-12T20:39:47.358Z,85.20
2018-02-12T20:42:14.877Z,85.10
2018-02-12T20:44:42.413Z,85.40
2018-02-12T20:47:09.938Z,85.30
2018-02-12T20:49:38.250Z,84.70
2018-02-12T20:52:05.768Z,84.80
2018-02-12T20:54:33.310Z,84.90
2018-02-12T20:57:00.833Z,85.20
2018-02-12T20:59:29.234Z,86.10
2018-02-12T21:01:57.517Z,85.80
2018-02-12T21:04:25.808Z,86.20
2018-02-12T21:06:54.130Z,86.20
2018-02-12T21:09:21.658Z,86.10
2018-02-12T21:11:50.162Z,86.40
2018-02-12T21:14:18.500Z,86.30
2018-02-12T21:16:46.017Z,86.30
2018-02-12T21:19:13.533Z,86.20
2018-02-12T21:21:41.077Z,86.00
2018-02-12T21:24:09.372Z,86.10
2018-02-12T21:26:36.926Z,86.10
2018-02-12T21:29:05.214Z,87.30
2018-02-12T21:31:33.540Z,86.90
2018-02-12T21:34:01.060Z,86.80
2018-02-12T21:36:28.621Z,87.00
2018-02-12T21:38:56.138Z,87.20
2018-02-12T21:41:23.685Z,87.80
2018-02-12T21:43:51.210Z,87.80
2018-02-12T21:46:18.755Z,87.80
2018-02-12T21:48:46.290Z,88.40
2018-02-12T21:51:13.832Z,87.80
2018-02-12T21:53:41.358Z,87.80
2018-02-12T21:56:09.657Z,87.80
2018-02-12T21:58:37.203Z,87.70
2018-02-12T22:01:04.758Z,87.70
2018-02-12T22:03:32.293Z,87.70
2018-02-12T22:05:59.828Z,88.00
2018-02-12T22:08:28.137Z,87.70
2018-02-12T22:10:55.723Z,87.70
2018-02-12T22:13:23.248Z,87.70
2018-02-12T22:15:50.930Z,87.60
2018-02-12T22:18:18.458Z,86.50
2018-02-12T22:20:46.039Z,85.70
2018-02-12T22:23:14.010Z,85.80
2018-02-12T22:25:41.599Z,85.50
2018-02-12T22:28:09.157Z,85.40
2018-02-12T22:30:36.692Z,85.60
2018-02-12T22:33:05.005Z,85.00
2018-02-12T22:35:32.609Z,85.00
2018-02-12T22:38:00.155Z,84.80
2018-02-12T22:40:27.693Z,85.10
2018-02-12T22:42:56.002Z,85.20
2018-02-12T22:45:23.530Z,85.20
2018-02-12T22:47:51.128Z,85.20
2018-02-12T22:50:19.449Z,84.80
2018-02-12T22:52:47.154Z,84.80
2018-02-12T22:55:14.673Z,84.80
2018-02-12T22:57:42.978Z,84.20
2018-02-12T23:00:10.522Z,84.10
2018-02-12T23:02:38.843Z,84.30
2018-02-12T23:05:06.356Z,84.30
2018-02-12T23:07:33.904Z,84.70
2018-02-12T23:10:01.429Z,84.20
2018-02-12T23:12:29.775Z,84.20
2018-02-12T23:14:57.313Z,84.20
2018-02-12T23:17:24.881Z,84.20
2018-02-12T23:19:52.416Z,83.90
2018-02-12T23:22:20.037Z,83.50
2018-02-12T23:24:47.575Z,83.30
2018-02-12T23:27:15.135Z,83.30
2018-02-12T23:29:42.674Z,83.00
2018-02-12T23:32:10.232Z,83.10
2018-02-12T23:34:37.772Z,83.20
2018-02-12T23:37:06.064Z,82.60
2018-02-12T23:39:33.804Z,82.60
2018-02-12T23:42:01.325Z,82.60
2018-02-12T23:44:28.886Z,82.70
2018-02-12T23:46:56.409Z,82.90
2018-02-12T23:49:23.964Z,82.50
2018-02-12T23:51:51.484Z,82.50
2018-02-12T23:54:24.737Z,83.00
2018-02-12T23:56:52.254Z,83.00
2018-02-12T23:59:19.795Z,83.20
